| time (UTC) | temp C | wind direction | speed KPH | gust KPH | rain 1hr cm | rain 24hr cm | rain mn cm | humidity % | barometer mb |
| 20260507191542 | 15 | 19 | 17.7 | 35.4 | 0.00 | 0.48 | 0.00 | 36 | 1004.6 |
| 20260507190037 | 15 | 349 | 11.3 | 33.8 | 0.00 | 0.48 | 0.00 | 35 | 1004.8 |
| 20260507184532 | 15 | 35 | 9.7 | 29.0 | 0.00 | 0.48 | 0.00 | 36 | 1004.9 |
| 20260507183058 | 15 | 31 | 14.5 | 37.0 | 0.00 | 0.51 | 0.00 | 34 | 1005.2 |
| 20260507181554 | 15 | 339 | 14.5 | 40.2 | 0.00 | 0.51 | 0.00 | 34 | 1005.3 |
| 20260507180048 | 15 | 11 | 12.9 | 25.7 | 0.00 | 0.51 | 0.00 | 36 | 1005.4 |
| 20260507174547 | 16 | 317 | 17.7 | 29.0 | 0.00 | 0.51 | 0.00 | 35 | 1005.4 |
| 20260507173043 | 15 | 348 | 9.7 | 33.8 | 0.00 | 0.51 | 0.00 | 36 | 1005.3 |
| 20260507171531 | 15 | 355 | 16.1 | 33.8 | 0.00 | 0.51 | 0.00 | 35 | 1005.4 |
| 20260507170024 | 15 | 318 | 12.9 | 20.9 | 0.00 | 0.51 | 0.00 | 41 | 1005.5 |
| 20260507164520 | 14 | 339 | 12.9 | 35.4 | 0.00 | 0.51 | 0.00 | 43 | 1005.7 |
| 20260507163015 | 14 | 275 | 17.7 | 35.4 | 0.00 | 0.51 | 0.00 | 43 | 1006.0 |
| 20260507161520 | 14 | 304 | 17.7 | 37.0 | 0.00 | 0.51 | 0.00 | 45 | 1006.2 |
| 20260507160005 | 13 | 341 | 11.3 | 25.7 | 0.00 | 0.51 | 0.00 | 46 | 1006.2 |
| 20260507154601 | 13 | 302 | 19.3 | 40.2 | 0.00 | 0.51 | 0.00 | 45 | 1006.3 |
| 20260507153056 | 13 | 360 | 16.1 | 32.2 | 0.00 | 0.51 | 0.00 | 44 | 1006.2 |
| 20260507151550 | 13 | 296 | 12.9 | 25.7 | 0.00 | 0.51 | 0.00 | 38 | 1006.5 |
| 20260507150043 | 13 | 336 | 11.3 | 24.1 | 0.00 | 0.51 | 0.00 | 34 | 1006.6 |
| 20260507144602 | 13 | 322 | 9.7 | 22.5 | 0.00 | 0.51 | 0.00 | 26 | 1006.7 |
| 20260507143034 | 13 | 317 | 12.9 | 24.1 | 0.00 | 0.51 | 0.00 | 15 | 1006.7 |
| 20260507141530 | 13 | 280 | 9.7 | 24.1 | 0.00 | 0.51 | 0.00 | 9 | 1006.6 |
| 20260507140022 | 13 | 299 | 6.4 | 20.9 | 0.00 | 0.51 | 0.00 | 1 | 1006.5 |
| 20260507134518 | 12 | 343 | 8.0 | 25.7 | 0.00 | 0.51 | 0.00 | 1 | 1006.6 |
| 20260507133014 | 12 | 348 | 6.4 | 19.3 | 0.00 | 0.51 | 0.51 | 1 | 1006.6 |
| 20260507131509 | 12 | 321 | 9.7 | 17.7 | 0.00 | 0.51 | 0.51 | 1 | 1006.8 |
| 20260507130006 | 11 | 338 | 11.3 | 19.3 | 0.00 | 0.51 | 0.51 | 1 | 1006.9 |
| 20260507124509 | 11 | 348 | 6.4 | 16.1 | 0.00 | 0.51 | 0.51 | 1 | 1007.0 |
| 20260507123005 | 11 | 46 | 8.0 | 19.3 | 0.00 | 0.51 | 0.51 | 1 | 1007.1 |
| 20260507121504 | 10 | 339 | 6.4 | 20.9 | 0.00 | 0.51 | 0.51 | 1 | 1007.2 |
| 20260507120002 | 10 | 321 | 3.2 | 16.1 | 0.00 | 0.51 | 0.51 | 1 | 1007.1 |
| 20260507114600 | 10 | 55 | 9.7 | 17.7 | 0.00 | 0.51 | 0.51 | 1 | 1007.1 |
| 20260507113054 | 9 | 334 | 6.4 | 11.3 | 0.00 | 0.51 | 0.51 | 1 | 1006.9 |
| 20260507111551 | 9 | 341 | 6.4 | 12.9 | 0.00 | 0.51 | 0.51 | 1 | 1006.9 |
| 20260507110043 | 8 | 360 | 6.4 | 9.7 | 0.00 | 0.51 | 0.51 | 1 | 1006.9 |
| 20260507104538 | 8 | 335 | 6.4 | 12.9 | 0.00 | 0.51 | 0.51 | 1 | 1007.0 |
| 20260507103036 | 8 | 328 | 1.6 | 9.7 | 0.00 | 0.51 | 0.51 | 1 | 1006.2 |
| 20260507101538 | 8 | 44 | 1.6 | 12.9 | 0.00 | 0.51 | 0.51 | 1 | 1006.2 |
| 20260507100032 | 8 | 346 | 6.4 | 11.3 | 0.00 | 0.51 | 0.51 | 1 | 1006.2 |
| 20260507094520 | 8 | 12 | 3.2 | 16.1 | 0.00 | 0.51 | 0.51 | 1 | 1006.1 |
| 20260507093019 | 8 | 355 | 8.0 | 16.1 | 0.00 | 0.51 | 0.51 | 1 | 1006.3 |
| 20260507091510 | 8 | 5 | 8.0 | 17.7 | 0.00 | 0.51 | 0.51 | 1 | 1006.4 |
| 20260507090007 | 8 | 338 | 8.0 | 19.3 | 0.00 | 0.51 | 0.51 | 1 | 1006.5 |
| 20260507084600 | 8 | 338 | 3.2 | 11.3 | 0.00 | 0.51 | 0.51 | 1 | 1006.5 |
| 20260507083055 | 9 | 10 | 6.4 | 14.5 | 0.03 | 0.51 | 0.51 | 1 | 1006.4 |
| 20260507081550 | 9 | 342 | 6.4 | 16.1 | 0.03 | 0.51 | 0.51 | 1 | 1006.3 |
| 20260507080046 | 9 | 340 | 4.8 | 14.5 | 0.03 | 0.51 | 0.51 | 1 | 1006.2 |
| 20260507074539 | 10 | 312 | 6.4 | 16.1 | 0.03 | 0.51 | 0.51 | 1 | 1006.2 |
| 20260507073035 | 10 | 317 | 8.0 | 14.5 | 0.00 | 0.48 | 0.48 | 1 | 1006.4 |
| 20260507071530 | 10 | 333 | 6.4 | 12.9 | 0.00 | 0.48 | 0.48 | 1 | 1005.8 |
| 20260507070026 | 10 | 313 | 8.0 | 19.3 | 0.00 | 0.48 | 0.48 | 1 | 1005.5 |
| 20260507064522 | 10 | 317 | 6.4 | 17.7 | 0.00 | 0.48 | 0.48 | 1 | 1005.2 |
| 20260507063016 | 11 | 300 | 9.7 | 17.7 | 0.00 | 0.48 | 0.48 | 1 | 1005.5 |
| 20260507061510 | 11 | 329 | 8.0 | 16.1 | 0.00 | 0.48 | 0.48 | 1 | 1005.5 |
| 20260507060007 | 11 | 25 | 8.0 | 17.7 | 0.00 | 0.48 | 0.48 | 1 | 1005.4 |
| 20260507054609 | 11 | 345 | 4.8 | 12.9 | 0.00 | 0.48 | 0.48 | 1 | 1005.6 |
| 20260507053058 | 11 | 336 | 8.0 | 12.9 | 0.00 | 0.48 | 0.48 | 1 | 1006.1 |
| 20260507051551 | 11 | 331 | 6.4 | 12.9 | 0.00 | 0.48 | 0.48 | 1 | 1005.7 |
| 20260507050046 | 12 | 311 | 6.4 | 11.3 | 0.00 | 0.48 | 0.48 | 1 | 1005.9 |
| 20260507044553 | 12 | 325 | 4.8 | 12.9 | 0.03 | 0.48 | 0.48 | 1 | 1005.8 |
| 20260507043035 | 12 | 355 | 11.3 | 22.5 | 0.03 | 0.48 | 0.48 | 1 | 1005.5 |
| 20260507041531 | 12 | 337 | 8.0 | 19.3 | 0.03 | 0.48 | 0.48 | 1 | 1005.6 |
| 20260507040032 | 13 | 333 | 6.4 | 17.7 | 0.03 | 0.48 | 0.48 | 1 | 1005.6 |
| 20260507034520 | 13 | 327 | 8.0 | 22.5 | 0.00 | 0.46 | 0.46 | 1 | 1005.5 |
| 20260507033015 | 14 | 349 | 9.7 | 20.9 | 0.00 | 0.46 | 0.46 | 1 | 1005.2 |
| 20260507031510 | 14 | 288 | 11.3 | 20.9 | 0.00 | 0.46 | 0.46 | 1 | 1004.9 |
| 20260507030005 | 14 | 351 | 11.3 | 29.0 | 0.00 | 0.46 | 0.46 | 1 | 1004.5 |
| 20260507024600 | 15 | 321 | 11.3 | 25.7 | 0.00 | 0.46 | 0.46 | 1 | 1004.3 |
| 20260507023056 | 15 | 337 | 9.7 | 22.5 | 0.00 | 0.46 | 0.46 | 1 | 1004.7 |
| 20260507021556 | 15 | 259 | 14.5 | 25.7 | 0.00 | 0.46 | 0.46 | 1 | 1004.4 |
| 20260507020051 | 15 | 252 | 6.4 | 17.7 | 0.03 | 0.46 | 0.46 | 1 | 1004.1 |
| 20260507014544 | 15 | 265 | 11.3 | 19.3 | 0.03 | 0.46 | 0.46 | 1 | 1004.3 |
| 20260507013045 | 15 | 225 | 11.3 | 20.9 | 0.03 | 0.46 | 0.46 | 1 | 1004.3 |
| 20260507011534 | 15 | 211 | 12.9 | 24.1 | 0.03 | 0.46 | 0.46 | 1 | 1004.3 |
| 20260507010030 | 15 | 263 | 9.7 | 20.9 | 0.00 | 0.43 | 0.43 | 1 | 1004.4 |
| 20260507004529 | 15 | 284 | 11.3 | 22.5 | 0.00 | 0.43 | 0.43 | 1 | 1004.4 |
| 20260507003026 | 15 | 265 | 11.3 | 25.7 | 0.00 | 0.43 | 0.43 | 1 | 1004.2 |
| 20260507001522 | 15 | 265 | 9.7 | 22.5 | 0.00 | 0.43 | 0.43 | 1 | 1004.2 |
| 20260507000013 | 15 | 228 | 12.9 | 32.2 | 0.00 | 0.43 | 0.43 | 1 | 1004.3 |
| 20260506234539 | 15 | 186 | 8.0 | 25.7 | 0.10 | 0.43 | 0.43 | 1 | 1004.0 |
| 20260506233031 | 15 | 282 | 8.0 | 24.1 | 0.13 | 0.43 | 0.43 | 1 | 1004.0 |
| 20260506231557 | 15 | 217 | 8.0 | 29.0 | 0.15 | 0.43 | 0.43 | 1 | 1003.9 |
| 20260506230055 | 15 | 232 | 12.9 | 24.1 | 0.20 | 0.43 | 0.43 | 1 | 1004.0 |
| 20260506224559 | 15 | 271 | 11.3 | 25.7 | 0.13 | 0.33 | 0.33 | 1 | 1004.1 |
| 20260506223040 | 15 | 232 | 9.7 | 30.6 | 0.13 | 0.30 | 0.30 | 1 | 1004.2 |
| 20260506221535 | 15 | 228 | 14.5 | 30.6 | 0.10 | 0.28 | 0.28 | 1 | 1004.2 |
| 20260506220036 | 15 | 248 | 9.7 | 30.6 | 0.05 | 0.23 | 0.23 | 1 | 1004.3 |
| 20260506214525 | 15 | 244 | 11.3 | 30.6 | 0.05 | 0.20 | 0.20 | 1 | 1004.5 |
| 20260506213021 | 15 | 218 | 11.3 | 25.7 | 0.03 | 0.18 | 0.18 | 1 | 1004.4 |
| 20260506211515 | 15 | 240 | 14.5 | 37.0 | 0.05 | 0.18 | 0.18 | 1 | 1004.7 |
| 20260506210017 | 15 | 239 | 16.1 | 33.8 | 0.05 | 0.18 | 0.18 | 1 | 1004.7 |
| 20260506204507 | 15 | 232 | 12.9 | 25.7 | 0.05 | 0.15 | 0.15 | 1 | 1005.0 |
| 20260506203035 | 15 | 227 | 11.3 | 29.0 | 0.05 | 0.15 | 0.15 | 1 | 1005.0 |
| 20260506201531 | 16 | 259 | 11.3 | 22.5 | 0.05 | 0.13 | 0.13 | 1 | 1005.0 |
| 20260506200023 | 16 | 239 | 12.9 | 29.0 | 0.08 | 0.13 | 0.13 | 1 | 1005.0 |
| 20260506194519 | 16 | 239 | 11.3 | 25.7 | 0.08 | 0.10 | 0.10 | 1 | 1005.0 |
| 20260506193015 | 17 | 226 | 14.5 | 25.7 | 0.10 | 0.10 | 0.10 | 1 | 1005.1 |